x

Burns Harbor, In (bhri3) Weather Station

5:40pm - Wed 30th Jul 2014 All times are CDT. -5 hours from GMT.

  • Wind
    10mph, 11mph gusts
  • Air Temp 67°f
  • Sea Pressure 1016.9mb
  • Burns Harbor, In
  • Burns Harbor, In

More Historic Weather Station data

Upgrade to MSW Pro to gain access to the past 30 days of data for over 8000 Wavebouys and Weather Stations around the globe.

Join Pro

Comparision Forecast

View Surf forecast
   
Wed 07/30 5:40pm 10 11 mph 1016.9mb 67f
5:30pm 9 13 mph 1017.3mb 67f
5:20pm 11 14 mph 1017.3mb 66f
5:10pm 13 15 mph 1017.3mb 67f
5:00pm 13 15 mph 1017.3mb 66f
4:40pm 13 16 mph 1017.3mb 67f
4:30pm 14 17 mph 1017.3mb 67f
4:20pm 14 16 mph 1017.3mb 67f
4:10pm 15 16 mph 1016.9mb 67f
4:00pm 15 17 mph 1017.3mb 67f
3:40pm 15 16 mph 1017.3mb 67f
3:30pm 14 16 mph 1017.3mb 68f
3:20pm 14 16 mph 1017.3mb 67f
3:10pm 14 15 mph 1017.3mb 68f
3:00pm 14 15 mph 1017.3mb 68f
Tue 07/29 3:40pm 10 11 mph 1017.3mb 69f
3:30pm 10 11 mph 1017.3mb 69f
3:20pm 10 11 mph 1017.3mb 69f
3:10pm 10 13 mph 1017.3mb 69f
3:00pm 9 11 mph 1017.3mb 69f
Mon 07/28 12:41am 29
mph
1011.9mb 65f
Sun 07/27 11:40pm 25 31 mph 1012.2mb 65f
11:30pm 25 34 mph 1011.9mb 65f
11:20pm 26 33 mph 1011.9mb 65f
11:10pm 25 32 mph 1011.9mb 65f
11:00pm 26 32 mph 1011.9mb 66f
10:40pm 24
mph
1011.5mb 66f
10:30pm 22 28 mph 1011.5mb 66f
10:20pm 23 28 mph 1011.5mb 66f
10:10pm 24 29 mph 1011.5mb 67f
10:00pm 21 25 mph 1011.5mb 67f
9:40pm 17 22 mph 1011.5mb 68f
9:30pm 18 22 mph 1011.2mb 68f
9:20pm 17 22 mph 1010.8mb 68f
9:10pm 22 23 mph 1010.8mb 68f
9:00pm 16 22 mph 1010.8mb 68f
8:40pm 18 22 mph 1010.2mb 68f
8:30pm 16 22 mph 1010.2mb 69f
8:20pm 18 22 mph 1010.2mb 69f
8:10pm 20 22 mph 1009.8mb 69f
8:00pm 21 26 mph 1009.8mb 69f
7:41pm 22 29 mph 1008.8mb 72f
7:40pm 22 28 mph 1009.1mb 72f
7:30pm 16 25 mph 1009.1mb 72f
7:20pm 17 25 mph 1008.8mb 72f
7:10pm 18 26 mph 1008.8mb 72f
7:00pm 17 22 mph 1008.8mb 72f
6:40pm 17 21 mph 1008.5mb 71f
6:30pm 16 21 mph 1008.5mb 71f
6:20pm 17 24 mph 1008.1mb 71f
6:10pm 18 23 mph 1007.8mb 71f
6:00pm 16 18 mph 1008.1mb 70f
5:40pm 16 22 mph 1008.1mb 70f
5:30pm 22 25 mph 1007.8mb 70f
5:20pm 18 28 mph 1007.8mb 71f
5:10pm 15 20 mph 1007.1mb 74f
5:00pm 17 23 mph 1006.8mb 74f
4:40pm 20 25 mph 1006.8mb 75f
4:30pm 20 23 mph 1006.4mb 75f
4:20pm 23 26 mph 1006.1mb 75f